sensor_id;sensor_type;location;lat;lon;timestamp;pressure;altitude;pressure_sealevel;temperature;humidity
59831;BME280;45711;50.108;13.712;2023-04-04T01:50:37;98739.41;;;0.49;67.35
59831;BME280;45711;50.108;13.712;2023-04-04T01:53:13;98737.97;;;0.47;65.50
59831;BME280;45711;50.108;13.712;2023-04-04T01:55:49;98731.13;;;0.24;67.37
59831;BME280;45711;50.108;13.712;2023-04-04T01:58:33;98731.72;;;0.48;70.72
59831;BME280;45711;50.108;13.712;2023-04-04T02:01:16;98728.44;;;0.46;66.03
59831;BME280;45711;50.108;13.712;2023-04-04T02:03:54;98729.09;;;0.48;65.57
59831;BME280;45711;50.108;13.712;2023-04-04T02:09:10;98722.81;;;0.49;66.33
59831;BME280;45711;50.108;13.712;2023-04-04T02:11:46;98726.03;;;0.51;66.02
59831;BME280;45711;50.108;13.712;2023-04-04T02:17:08;98725.22;;;0.44;68.21
59831;BME280;45711;50.108;13.712;2023-04-04T02:19:44;98730.22;;;0.39;67.10
59831;BME280;45711;50.108;13.712;2023-04-04T02:23:04;98727.94;;;0.29;67.58
59831;BME280;45711;50.108;13.712;2023-04-04T02:25:42;98723.69;;;0.28;67.14
59831;BME280;45711;50.108;13.712;2023-04-04T02:28:36;98729.84;;;0.42;67.19
59831;BME280;45711;50.108;13.712;2023-04-04T02:31:26;98727.22;;;0.42;68.09
59831;BME280;45711;50.108;13.712;2023-04-04T02:34:16;98723.25;;;0.24;69.85
59831;BME280;45711;50.108;13.712;2023-04-04T02:37:02;98718.19;;;0.23;69.03
59831;BME280;45711;50.108;13.712;2023-04-04T02:47:06;98712.91;;;0.23;69.00
59831;BME280;45711;50.108;13.712;2023-04-04T02:49:03;98711.47;;;0.20;70.32
59831;BME280;45711;50.108;13.712;2023-04-04T02:51:29;98714.97;;;0.28;70.91
59831;BME280;45711;50.108;13.712;2023-04-04T02:54:17;98717.59;;;0.28;70.46
59831;BME280;45711;50.108;13.712;2023-04-04T02:56:47;98711.69;;;0.25;70.62
59831;BME280;45711;50.108;13.712;2023-04-04T02:59:39;98715.00;;;0.34;70.86
59831;BME280;45711;50.108;13.712;2023-04-04T03:02:12;98714.19;;;0.34;71.32
59831;BME280;45711;50.108;13.712;2023-04-04T03:05:04;98725.16;;;0.37;71.13
59831;BME280;45711;50.108;13.712;2023-04-04T03:08:02;98727.22;;;0.42;70.33
59831;BME280;45711;50.108;13.712;2023-04-04T03:10:50;98720.69;;;0.38;71.38
59831;BME280;45711;50.108;13.712;2023-04-04T03:13:38;98718.84;;;0.32;70.98
59831;BME280;45711;50.108;13.712;2023-04-04T03:16:07;98720.25;;;0.34;69.30
59831;BME280;45711;50.108;13.712;2023-04-04T03:18:41;98717.03;;;0.32;70.82
59831;BME280;45711;50.108;13.712;2023-04-04T03:21:17;98716.59;;;0.29;71.81
59831;BME280;45711;50.108;13.712;2023-04-04T03:24:17;98718.78;;;0.25;72.05
59831;BME280;45711;50.108;13.712;2023-04-04T03:29:28;98715.75;;;0.56;69.88
59831;BME280;45711;50.108;13.712;2023-04-04T03:32:08;98713.66;;;0.45;70.64
59831;BME280;45711;50.108;13.712;2023-04-04T03:44:15;98712.94;;;0.30;71.82
59831;BME280;45711;50.108;13.712;2023-04-04T03:46:51;98712.72;;;0.24;72.08
59831;BME280;45711;50.108;13.712;2023-04-04T03:49:27;98701.94;;;0.19;73.54
59831;BME280;45711;50.108;13.712;2023-04-04T03:52:07;98710.22;;;0.44;71.28
59831;BME280;45711;50.108;13.712;2023-04-04T03:55:25;98698.00;;;0.37;70.09
59831;BME280;45711;50.108;13.712;2023-04-04T03:58:13;98714.81;;;0.36;72.29
59831;BME280;45711;50.108;13.712;2023-04-04T04:01:11;98702.63;;;0.28;70.80
59831;BME280;45711;50.108;13.712;2023-04-04T04:03:44;98707.44;;;0.24;71.50
59831;BME280;45711;50.108;13.712;2023-04-04T04:06:19;98716.88;;;0.12;73.17
59831;BME280;45711;50.108;13.712;2023-04-04T04:08:54;98703.94;;;0.17;71.57
59831;BME280;45711;50.108;13.712;2023-04-04T04:11:26;98711.69;;;0.19;72.66
59831;BME280;45711;50.108;13.712;2023-04-04T04:13:57;98710.25;;;-0.05;72.24
59831;BME280;45711;50.108;13.712;2023-04-04T04:16:27;98713.56;;;0.04;73.47
59831;BME280;45711;50.108;13.712;2023-04-04T04:19:07;98711.00;;;0.10;71.88
59831;BME280;45711;50.108;13.712;2023-04-04T04:21:35;98715.63;;;0.08;71.47
59831;BME280;45711;50.108;13.712;2023-04-04T04:24:13;98712.72;;;-0.04;73.30
59831;BME280;45711;50.108;13.712;2023-04-04T04:26:49;98718.44;;;0.00;72.72
59831;BME280;45711;50.108;13.712;2023-04-04T04:29:19;98723.94;;;-0.16;73.51
59831;BME280;45711;50.108;13.712;2023-04-04T04:32:17;98726.59;;;-0.16;73.11
59831;BME280;45711;50.108;13.712;2023-04-04T04:34:59;98716.44;;;-0.19;74.52
59831;BME280;45711;50.108;13.712;2023-04-04T04:49:38;98714.91;;;-0.07;73.99
59831;BME280;45711;50.108;13.712;2023-04-04T04:53:08;98709.59;;;-0.14;73.42
59831;BME280;45711;50.108;13.712;2023-04-04T04:55:41;98724.97;;;-0.17;72.75
59831;BME280;45711;50.108;13.712;2023-04-04T04:58:10;98715.28;;;-0.10;73.11
59831;BME280;45711;50.108;13.712;2023-04-04T05:00:44;98722.09;;;0.06;71.51
59831;BME280;45711;50.108;13.712;2023-04-04T05:03:52;98718.09;;;0.10;72.76
59831;BME280;45711;50.108;13.712;2023-04-04T05:12:29;98724.03;;;0.18;71.98
59831;BME280;45711;50.108;13.712;2023-04-04T05:14:59;98722.63;;;0.22;72.13
59831;BME280;45711;50.108;13.712;2023-04-04T05:17:28;98723.00;;;0.19;72.52
59831;BME280;45711;50.108;13.712;2023-04-04T05:20:00;98726.59;;;0.40;71.79
59831;BME280;45711;50.108;13.712;2023-04-04T05:22:48;98715.00;;;0.34;71.54
59831;BME280;45711;50.108;13.712;2023-04-04T05:25:24;98718.94;;;0.45;71.37
59831;BME280;45711;50.108;13.712;2023-04-04T05:27:58;98725.03;;;0.52;72.14
59831;BME280;45711;50.108;13.712;2023-04-04T05:30:23;98722.31;;;0.39;71.82
59831;BME280;45711;50.108;13.712;2023-04-04T05:32:50;98728.81;;;0.43;73.21
59831;BME280;45711;50.108;13.712;2023-04-04T05:35:15;98725.44;;;0.49;72.89
59831;BME280;45711;50.108;13.712;2023-04-04T05:37:41;98718.38;;;0.56;72.12
59831;BME280;45711;50.108;13.712;2023-04-04T05:40:07;98727.66;;;0.52;73.55
59831;BME280;45711;50.108;13.712;2023-04-04T05:42:33;98724.81;;;0.47;72.06
59831;BME280;45711;50.108;13.712;2023-04-04T05:45:01;98726.91;;;0.58;72.28
59831;BME280;45711;50.108;13.712;2023-04-04T05:47:26;98724.50;;;0.63;70.92
59831;BME280;45711;50.108;13.712;2023-04-04T05:49:52;98724.19;;;0.80;70.55
59831;BME280;45711;50.108;13.712;2023-04-04T05:52:18;98731.88;;;0.74;70.36
59831;BME280;45711;50.108;13.712;2023-04-04T05:54:48;98723.97;;;0.81;70.95
59831;BME280;45711;50.108;13.712;2023-04-04T05:57:17;98720.97;;;0.91;70.12
59831;BME280;45711;50.108;13.712;2023-04-04T05:59:42;98730.53;;;0.92;69.37
59831;BME280;45711;50.108;13.712;2023-04-04T06:02:09;98719.69;;;0.73;69.40
59831;BME280;45711;50.108;13.712;2023-04-04T06:04:45;98727.84;;;0.85;69.34
59831;BME280;45711;50.108;13.712;2023-04-04T06:07:11;98730.72;;;0.90;69.83
59831;BME280;45711;50.108;13.712;2023-04-04T06:09:37;98733.59;;;1.02;67.69
59831;BME280;45711;50.108;13.712;2023-04-04T06:12:04;98733.69;;;1.29;67.65
59831;BME280;45711;50.108;13.712;2023-04-04T06:14:30;98731.41;;;1.12;67.05
59831;BME280;45711;50.108;13.712;2023-04-04T06:16:56;98729.47;;;1.41;67.36
59831;BME280;45711;50.108;13.712;2023-04-04T06:19:25;98733.25;;;1.18;67.72
59831;BME280;45711;50.108;13.712;2023-04-04T06:21:51;98733.44;;;1.17;68.37
59831;BME280;45711;50.108;13.712;2023-04-04T06:24:16;98723.56;;;1.39;66.98
59831;BME280;45711;50.108;13.712;2023-04-04T06:26:42;98728.41;;;1.29;67.64
59831;BME280;45711;50.108;13.712;2023-04-04T06:29:09;98730.00;;;1.16;67.30
59831;BME280;45711;50.108;13.712;2023-04-04T06:31:34;98735.31;;;1.30;65.71
59831;BME280;45711;50.108;13.712;2023-04-04T06:34:00;98741.81;;;1.34;65.57
59831;BME280;45711;50.108;13.712;2023-04-04T06:36:28;98728.03;;;1.38;66.43
59831;BME280;45711;50.108;13.712;2023-04-04T06:38:53;98729.88;;;1.51;64.32
59831;BME280;45711;50.108;13.712;2023-04-04T06:41:19;98735.84;;;1.80;63.40
59831;BME280;45711;50.108;13.712;2023-04-04T06:43:47;98721.59;;;1.67;63.68
59831;BME280;45711;50.108;13.712;2023-04-04T06:46:19;98728.53;;;1.88;64.26
59831;BME280;45711;50.108;13.712;2023-04-04T06:48:44;98724.59;;;2.70;69.21
59831;BME280;45711;50.108;13.712;2023-04-04T06:51:10;98730.81;;;2.89;64.04
59831;BME280;45711;50.108;13.712;2023-04-04T06:54:00;98727.72;;;2.28;62.32
59831;BME280;45711;50.108;13.712;2023-04-04T06:56:33;98732.97;;;2.21;65.18
59831;BME280;45711;50.108;13.712;2023-04-04T06:59:02;98733.19;;;2.33;65.70
59831;BME280;45711;50.108;13.712;2023-04-04T07:01:40;98739.28;;;2.40;65.22
59831;BME280;45711;50.108;13.712;2023-04-04T07:04:06;98733.72;;;2.68;66.26
59831;BME280;45711;50.108;13.712;2023-04-04T07:06:49;98734.56;;;2.55;60.80
59831;BME280;45711;50.108;13.712;2023-04-04T07:10:00;98735.81;;;2.46;62.66
59831;BME280;45711;50.108;13.712;2023-04-04T07:12:32;98744.97;;;1.97;63.36
59831;BME280;45711;50.108;13.712;2023-04-04T07:15:00;98743.91;;;2.71;63.49
59831;BME280;45711;50.108;13.712;2023-04-04T07:17:35;98740.09;;;3.12;70.22
59831;BME280;45711;50.108;13.712;2023-04-04T07:20:44;98733.59;;;3.08;62.43
59831;BME280;45711;50.108;13.712;2023-04-04T07:24:06;98742.38;;;3.78;66.93
59831;BME280;45711;50.108;13.712;2023-04-04T07:43:03;98733.53;;;3.59;62.82
59831;BME280;45711;50.108;13.712;2023-04-04T07:45:35;98733.56;;;4.09;57.91
59831;BME280;45711;50.108;13.712;2023-04-04T07:48:44;98731.06;;;5.01;56.18
59831;BME280;45711;50.108;13.712;2023-04-04T07:51:18;98734.59;;;4.33;57.31
59831;BME280;45711;50.108;13.712;2023-04-04T07:53:54;98731.91;;;3.58;64.20
59831;BME280;45711;50.108;13.712;2023-04-04T08:06:28;98734.31;;;2.70;61.60
59831;BME280;45711;50.108;13.712;2023-04-04T08:08:54;98734.84;;;2.98;57.55
59831;BME280;45711;50.108;13.712;2023-04-04T08:18:29;98734.06;;;2.91;59.12
59831;BME280;45711;50.108;13.712;2023-04-04T08:20:59;98737.84;;;2.44;56.95
59831;BME280;45711;50.108;13.712;2023-04-04T08:23:26;98732.84;;;2.87;55.87
59831;BME280;45711;50.108;13.712;2023-04-04T08:26:01;98733.44;;;2.96;60.07
59831;BME280;45711;50.108;13.712;2023-04-04T08:28:30;98727.63;;;2.67;53.81
59831;BME280;45711;50.108;13.712;2023-04-04T08:30:56;98736.91;;;2.96;58.72
59831;BME280;45711;50.108;13.712;2023-04-04T08:33:24;98733.47;;;2.89;54.26
59831;BME280;45711;50.108;13.712;2023-04-04T08:35:53;98731.97;;;3.00;62.31
59831;BME280;45711;50.108;13.712;2023-04-04T08:38:23;98726.81;;;2.67;51.82
59831;BME280;45711;50.108;13.712;2023-04-04T08:40:52;98732.72;;;2.56;52.67
59831;BME280;45711;50.108;13.712;2023-04-04T08:43:22;98728.69;;;2.46;53.24
59831;BME280;45711;50.108;13.712;2023-04-04T08:45:49;98736.41;;;2.41;54.14
59831;BME280;45711;50.108;13.712;2023-04-04T08:48:26;98726.59;;;3.90;60.16
59831;BME280;45711;50.108;13.712;2023-04-04T08:51:00;98730.19;;;5.37;54.70
59831;BME280;45711;50.108;13.712;2023-04-04T08:53:34;98733.84;;;4.26;51.73
59831;BME280;45711;50.108;13.712;2023-04-04T08:57:05;98734.13;;;3.93;53.48
59831;BME280;45711;50.108;13.712;2023-04-04T08:59:42;98727.31;;;3.02;54.07
59831;BME280;45711;50.108;13.712;2023-04-04T09:02:31;98734.00;;;2.33;53.29
59831;BME280;45711;50.108;13.712;2023-04-04T09:05:37;98737.19;;;2.68;57.52
59831;BME280;45711;50.108;13.712;2023-04-04T09:11:47;98739.84;;;2.55;55.21
59831;BME280;45711;50.108;13.712;2023-04-04T09:14:16;98733.38;;;2.05;52.58
59831;BME280;45711;50.108;13.712;2023-04-04T09:16:55;98727.47;;;2.42;52.05
59831;BME280;45711;50.108;13.712;2023-04-04T09:19:29;98726.66;;;2.48;54.22
59831;BME280;45711;50.108;13.712;2023-04-04T09:21:54;98719.41;;;2.95;53.20
59831;BME280;45711;50.108;13.712;2023-04-04T09:24:43;98719.34;;;3.47;58.97
59831;BME280;45711;50.108;13.712;2023-04-04T09:27:19;98719.69;;;3.89;49.26
59831;BME280;45711;50.108;13.712;2023-04-04T09:29:55;98716.13;;;4.01;50.74
59831;BME280;45711;50.108;13.712;2023-04-04T09:32:27;98723.34;;;4.38;55.63
59831;BME280;45711;50.108;13.712;2023-04-04T09:46:05;98711.19;;;6.88;48.22
59831;BME280;45711;50.108;13.712;2023-04-04T09:59:13;98708.22;;;5.60;46.02
59831;BME280;45711;50.108;13.712;2023-04-04T10:01:46;98716.56;;;6.64;51.31
59831;BME280;45711;50.108;13.712;2023-04-04T10:04:28;98716.94;;;7.65;46.78
59831;BME280;45711;50.108;13.712;2023-04-04T10:07:19;98704.50;;;7.25;54.06
59831;BME280;45711;50.108;13.712;2023-04-04T10:13:29;98699.28;;;5.43;46.47
59831;BME280;45711;50.108;13.712;2023-04-04T10:16:13;98705.28;;;5.80;50.91
59831;BME280;45711;50.108;13.712;2023-04-04T10:18:52;98692.09;;;5.62;45.39
59831;BME280;45711;50.108;13.712;2023-04-04T10:21:18;98691.06;;;5.33;45.45
59831;BME280;45711;50.108;13.712;2023-04-04T10:23:45;98697.19;;;5.87;51.13
59831;BME280;45711;50.108;13.712;2023-04-04T10:26:11;98692.03;;;5.20;45.66
59831;BME280;45711;50.108;13.712;2023-04-04T10:28:37;98690.28;;;4.95;46.87
59831;BME280;45711;50.108;13.712;2023-04-04T10:31:08;98705.19;;;6.80;47.83
59831;BME280;45711;50.108;13.712;2023-04-04T10:33:45;98693.94;;;7.30;42.29
59831;BME280;45711;50.108;13.712;2023-04-04T10:36:15;98699.69;;;6.59;46.24
59831;BME280;45711;50.108;13.712;2023-04-04T10:38:53;98700.03;;;6.15;47.92
59831;BME280;45711;50.108;13.712;2023-04-04T10:41:21;98693.94;;;5.73;46.72
59831;BME280;45711;50.108;13.712;2023-04-04T10:44:09;98693.78;;;5.98;43.11
59831;BME280;45711;50.108;13.712;2023-04-04T10:46:40;98689.84;;;6.00;49.92
59831;BME280;45711;50.108;13.712;2023-04-04T10:49:25;98680.38;;;6.40;51.17
59831;BME280;45711;50.108;13.712;2023-04-04T10:53:30;98684.63;;;6.76;50.66
59831;BME280;45711;50.108;13.712;2023-04-04T10:55:38;98678.53;;;7.33;41.15
59831;BME280;45711;50.108;13.712;2023-04-04T10:58:11;98675.38;;;7.19;42.47
59831;BME280;45711;50.108;13.712;2023-04-04T11:00:50;98672.88;;;6.01;42.34
59831;BME280;45711;50.108;13.712;2023-04-04T11:03:26;98679.03;;;5.72;42.46
59831;BME280;45711;50.108;13.712;2023-04-04T11:06:17;98665.94;;;6.00;43.44
59831;BME280;45711;50.108;13.712;2023-04-04T11:09:01;98671.03;;;6.49;42.12
59831;BME280;45711;50.108;13.712;2023-04-04T11:15:11;98660.94;;;6.51;39.00
59831;BME280;45711;50.108;13.712;2023-04-04T11:18:09;98648.75;;;6.78;44.33
59831;BME280;45711;50.108;13.712;2023-04-04T11:21:25;98657.31;;;6.80;50.60
59831;BME280;45711;50.108;13.712;2023-04-04T11:24:14;98670.19;;;6.48;54.34
59831;BME280;45711;50.108;13.712;2023-04-04T11:27:02;98677.22;;;5.84;43.70
59831;BME280;45711;50.108;13.712;2023-04-04T11:29:51;98660.53;;;6.07;48.33
59831;BME280;45711;50.108;13.712;2023-04-04T11:32:44;98657.94;;;6.47;47.55
59831;BME280;45711;50.108;13.712;2023-04-04T11:35:28;98645.78;;;6.75;54.25
59831;BME280;45711;50.108;13.712;2023-04-04T11:38:01;98646.56;;;6.75;47.04
59831;BME280;45711;50.108;13.712;2023-04-04T11:40:53;98639.06;;;6.72;43.98
59831;BME280;45711;50.108;13.712;2023-04-04T11:43:22;98646.56;;;6.75;47.67
59831;BME280;45711;50.108;13.712;2023-04-04T11:45:50;98646.00;;;6.62;48.94
59831;BME280;45711;50.108;13.712;2023-04-04T11:48:37;98635.25;;;6.68;51.55
59831;BME280;45711;50.108;13.712;2023-04-04T11:51:05;98645.09;;;6.56;44.88
59831;BME280;45711;50.108;13.712;2023-04-04T11:54:35;98645.69;;;6.58;48.05
59831;BME280;45711;50.108;13.712;2023-04-04T11:56:32;98638.81;;;6.10;44.17
59831;BME280;45711;50.108;13.712;2023-04-04T11:58:59;98628.03;;;6.28;46.93
59831;BME280;45711;50.108;13.712;2023-04-04T12:01:30;98621.94;;;6.68;44.94
59831;BME280;45711;50.108;13.712;2023-04-04T12:03:59;98616.34;;;6.82;52.78
59831;BME280;45711;50.108;13.712;2023-04-04T12:06:28;98626.03;;;6.47;49.89
59831;BME280;45711;50.108;13.712;2023-04-04T12:09:03;98621.50;;;6.60;43.68
59831;BME280;45711;50.108;13.712;2023-04-04T12:11:30;98618.38;;;6.63;54.21
59831;BME280;45711;50.108;13.712;2023-04-04T12:13:58;98619.91;;;6.87;46.73
59831;BME280;45711;50.108;13.712;2023-04-04T12:16:26;98608.19;;;6.71;47.75
59831;BME280;45711;50.108;13.712;2023-04-04T12:18:56;98611.38;;;6.45;51.33
59831;BME280;45711;50.108;13.712;2023-04-04T12:21:25;98595.81;;;6.25;43.90
59831;BME280;45711;50.108;13.712;2023-04-04T12:23:54;98592.94;;;6.67;44.23
59831;BME280;45711;50.108;13.712;2023-04-04T12:26:21;98613.84;;;6.23;41.25
59831;BME280;45711;50.108;13.712;2023-04-04T12:28:49;98595.88;;;6.53;45.90
59831;BME280;45711;50.108;13.712;2023-04-04T12:31:22;98600.47;;;6.58;43.77
59831;BME280;45711;50.108;13.712;2023-04-04T12:33:48;98592.28;;;6.48;40.82
59831;BME280;45711;50.108;13.712;2023-04-04T12:36:23;98594.66;;;6.09;41.65
59831;BME280;45711;50.108;13.712;2023-04-04T12:39:08;98593.75;;;6.67;51.05
59831;BME280;45711;50.108;13.712;2023-04-04T12:41:56;98594.47;;;6.51;42.29
59831;BME280;45711;50.108;13.712;2023-04-04T12:44:29;98593.28;;;5.95;43.34
59831;BME280;45711;50.108;13.712;2023-04-04T12:47:01;98589.09;;;6.22;42.47
59831;BME280;45711;50.108;13.712;2023-04-04T12:49:31;98599.06;;;6.67;55.09
59831;BME280;45711;50.108;13.712;2023-04-04T12:52:03;98589.91;;;6.75;44.60
59831;BME280;45711;50.108;13.712;2023-04-04T12:54:40;98592.88;;;6.78;37.49
59831;BME280;45711;50.108;13.712;2023-04-04T12:58:58;98585.16;;;6.37;37.81
59831;BME280;45711;50.108;13.712;2023-04-04T13:00:11;98597.56;;;6.08;44.13
59831;BME280;45711;50.108;13.712;2023-04-04T13:02:44;98588.88;;;6.36;47.95
59831;BME280;45711;50.108;13.712;2023-04-04T13:05:12;98589.69;;;6.24;36.98
59831;BME280;45711;50.108;13.712;2023-04-04T13:08:04;98572.66;;;6.49;46.86
59831;BME280;45711;50.108;13.712;2023-04-04T13:10:57;98573.06;;;6.86;53.68
59831;BME280;45711;50.108;13.712;2023-04-04T13:13:33;98576.53;;;6.87;40.61
59831;BME280;45711;50.108;13.712;2023-04-04T13:16:01;98585.88;;;7.01;51.93
59831;BME280;45711;50.108;13.712;2023-04-04T13:18:32;98584.78;;;6.85;42.46
59831;BME280;45711;50.108;13.712;2023-04-04T13:20:57;98574.28;;;6.38;38.36
59831;BME280;45711;50.108;13.712;2023-04-04T13:23:23;98570.88;;;6.83;51.22
59831;BME280;45711;50.108;13.712;2023-04-04T13:25:49;98566.97;;;6.86;49.95
59831;BME280;45711;50.108;13.712;2023-04-04T13:28:14;98572.47;;;6.67;40.91
59831;BME280;45711;50.108;13.712;2023-04-04T13:30:40;98554.75;;;6.73;41.53
59831;BME280;45711;50.108;13.712;2023-04-04T13:33:12;98564.94;;;6.36;40.97
59831;BME280;45711;50.108;13.712;2023-04-04T13:35:37;98567.38;;;6.14;37.47
59831;BME280;45711;50.108;13.712;2023-04-04T13:38:03;98557.88;;;6.29;38.67
59831;BME280;45711;50.108;13.712;2023-04-04T13:40:28;98557.06;;;6.41;47.46
59831;BME280;45711;50.108;13.712;2023-04-04T13:42:54;98556.41;;;6.62;42.12
59831;BME280;45711;50.108;13.712;2023-04-04T13:45:20;98563.56;;;6.62;48.97
59831;BME280;45711;50.108;13.712;2023-04-04T13:47:45;98566.41;;;6.84;51.64
59831;BME280;45711;50.108;13.712;2023-04-04T13:50:12;98558.59;;;6.65;41.86
59831;BME280;45711;50.108;13.712;2023-04-04T13:52:38;98552.88;;;6.73;38.55
59831;BME280;45711;50.108;13.712;2023-04-04T13:55:04;98560.63;;;6.46;37.22
59831;BME280;45711;50.108;13.712;2023-04-04T13:57:31;98551.25;;;6.44;36.24
59831;BME280;45711;50.108;13.712;2023-04-04T13:59:56;98542.06;;;6.63;41.52
59831;BME280;45711;50.108;13.712;2023-04-04T14:02:22;98547.56;;;6.73;38.33
59831;BME280;45711;50.108;13.712;2023-04-04T14:04:48;98547.06;;;5.96;41.93
59831;BME280;45711;50.108;13.712;2023-04-04T14:07:15;98542.44;;;6.03;39.08
59831;BME280;45711;50.108;13.712;2023-04-04T14:09:41;98537.50;;;5.95;44.38
59831;BME280;45711;50.108;13.712;2023-04-04T14:12:07;98543.88;;;6.34;37.62
59831;BME280;45711;50.108;13.712;2023-04-04T14:14:32;98543.72;;;6.12;38.25
59831;BME280;45711;50.108;13.712;2023-04-04T14:16:58;98552.66;;;6.46;46.44
59831;BME280;45711;50.108;13.712;2023-04-04T14:19:24;98542.34;;;6.78;45.29
59831;BME280;45711;50.108;13.712;2023-04-04T14:21:49;98545.28;;;6.65;36.20
59831;BME280;45711;50.108;13.712;2023-04-04T14:24:16;98545.13;;;6.84;37.98
59831;BME280;45711;50.108;13.712;2023-04-04T14:26:42;98547.19;;;6.82;41.07
59831;BME280;45711;50.108;13.712;2023-04-04T14:29:07;98545.47;;;6.47;39.52
59831;BME280;45711;50.108;13.712;2023-04-04T14:31:33;98542.25;;;5.93;35.42
59831;BME280;45711;50.108;13.712;2023-04-04T14:33:59;98541.38;;;6.56;38.40
59831;BME280;45711;50.108;13.712;2023-04-04T14:36:25;98539.22;;;6.82;41.32
59831;BME280;45711;50.108;13.712;2023-04-04T14:38:51;98537.22;;;6.60;36.25
59831;BME280;45711;50.108;13.712;2023-04-04T14:41:17;98543.97;;;6.39;35.81
59831;BME280;45711;50.108;13.712;2023-04-04T14:43:43;98541.19;;;6.46;39.72
59831;BME280;45711;50.108;13.712;2023-04-04T14:46:09;98535.78;;;6.69;46.17
59831;BME280;45711;50.108;13.712;2023-04-04T14:48:34;98544.06;;;6.85;39.88
59831;BME280;45711;50.108;13.712;2023-04-04T14:51:00;98528.41;;;6.71;45.86
59831;BME280;45711;50.108;13.712;2023-04-04T14:53:26;98541.47;;;6.61;37.87
59831;BME280;45711;50.108;13.712;2023-04-04T14:55:51;98536.75;;;6.23;38.01
59831;BME280;45711;50.108;13.712;2023-04-04T14:58:19;98543.75;;;6.41;37.02
59831;BME280;45711;50.108;13.712;2023-04-04T15:00:44;98542.97;;;6.28;36.83
59831;BME280;45711;50.108;13.712;2023-04-04T15:03:14;98540.69;;;6.61;37.63
59831;BME280;45711;50.108;13.712;2023-04-04T15:05:40;98534.66;;;6.37;35.44
59831;BME280;45711;50.108;13.712;2023-04-04T15:08:06;98537.31;;;6.25;35.43
59831;BME280;45711;50.108;13.712;2023-04-04T15:10:32;98533.50;;;6.33;39.52
59831;BME280;45711;50.108;13.712;2023-04-04T15:12:57;98528.56;;;6.13;38.10
59831;BME280;45711;50.108;13.712;2023-04-04T15:15:24;98528.41;;;6.71;50.50
59831;BME280;45711;50.108;13.712;2023-04-04T18:16:27;98522.44;;;1.96;51.80
